Flight Track Log - Related Links

Times and Time Zones

All times are in EST time to prevent confusion due to time zone crossing. See the N3745Q flight status page for this flight to view local times or setup timezone preferences in your user account.

Time Position Orientation Groundspeed Altitude Reporting Facility
EST Latitude Longitude Course Direction KTS MPH feet Rate Location/Type
Wed 09:47:00 AM 26.2914 -81.5919 42° Northeast  Level FlightAware Approximate
Wed 09:48:00 AM 26.3179 -81.5661 24° Northeast  Level FlightAware Approximate
Wed 09:49:00 AM 26.3500 -81.5499 46° Northeast  Level FlightAware Approximate
Wed 09:50:00 AM 26.3745 -81.5216 46° Northeast  Level FlightAware Approximate
Wed 09:51:00 AM 26.3989 -81.4932 46° Northeast  Level FlightAware Approximate
Wed 09:52:00 AM 26.4233 -81.4648 46° Northeast  Level FlightAware Approximate
Wed 09:53:00 AM 26.4477 -81.4363 46° Northeast  Level FlightAware Approximate
Wed 09:53:25 AM 26.3728 -81.4825 46° Northeast 117 135 6,700  Level Miami Center
Wed 09:54:00 AM 26.4721 -81.4079 46° Northeast  Level FlightAware Approximate
Wed 09:54:25 AM 26.3922 -81.4556 51° Northeast 106 122 7,100  Level Miami Center
Wed 09:55:00 AM 26.4965 -81.3795 46° Northeast  Level FlightAware Approximate
Wed 09:55:25 AM 26.4164 -81.4217 51° Northeast 116 133 7,000  Level Miami Center
Wed 09:56:00 AM 26.5208 -81.3510 46° Northeast  Level FlightAware Approximate
Wed 09:56:25 AM 26.4447 -81.3856 49° Northeast 140 161 7,000  Level Miami Center
Wed 09:57:00 AM 26.5452 -81.3225 46° Northeast  Level FlightAware Approximate
Wed 09:57:25 AM 26.4750 -81.3450 50° Northeast 145 167 7,000  Level Miami Center
Wed 09:58:25 AM 26.5014 -81.3064 53° Northeast 151 174 7,000  Level Miami Center
Wed 09:59:25 AM 26.5297 -81.2706 49° Northeast 151 174 7,000  Level Miami Center
Wed 10:00:25 AM 26.5600 -81.2344 47° Northeast 151 174 7,000  Level Miami Center
Wed 10:01:25 AM 26.5981 -81.2150 25° Northeast 146 168 7,000  Level Miami Center
Wed 10:02:25 AM 26.6422 -81.2050 11° North 153 176 7,000  Level Miami Center
Wed 10:03:25 AM 26.6825 -81.1878 21° North 153 176 7,000  Level Miami Center
Wed 10:04:25 AM 26.7208 -81.1636 29° Northeast 148 170 7,000  Level Miami Center
Wed 10:05:25 AM 26.7569 -81.1347 36° Northeast 153 176 7,000  Level Miami Center
Wed 10:06:25 AM 26.7953 -81.1175 22° Northeast 158 182 7,000  Level Miami Center
Wed 10:07:25 AM 26.8353 -81.1006 21° North 158 182 7,000  Level Miami Center
Wed 10:08:25 AM 26.8797 -81.0833 19° North 152 175 7,000  Level Miami Center
Wed 10:09:25 AM 26.9197 -81.0664 21° North 152 175 7,000  Level Miami Center
Wed 10:10:25 AM 26.9644 -81.0444 24° Northeast 157 181 7,000  Level Miami Center
Wed 10:11:25 AM 27.0047 -81.0228 26° Northeast 157 181 7,000  Level Miami Center
Wed 10:12:25 AM 27.0428 -81.0008 27° Northeast 157 181 7,000  Level Miami Center
Wed 10:13:25 AM 27.0808 -80.9836 22° Northeast 157 181 7,000  Level Miami Center
Wed 10:14:25 AM 27.1211 -80.9661 21° North 152 175 7,000  Level Miami Center
Wed 10:15:25 AM 27.1675 -80.9469 20° North 152 175 7,000  Level Miami Center
Wed 10:16:25 AM 27.2078 -80.9297 21° North 152 175 7,000  Level Miami Center
Wed 10:17:25 AM 27.2436 -80.9100 26° Northeast 157 181 7,000  Level Miami Center
Wed 10:18:25 AM 27.2839 -80.8903 24° Northeast 157 181 7,000  Level Miami Center
Wed 10:19:25 AM 27.3303 -80.8756 16° North 152 175 7,000 -200 Level Miami Center
Wed 10:20:25 AM 27.3686 -80.8489 32° Northeast 152 175 6,600 -500 Descending Miami Center
Wed 10:21:25 AM 27.4011 -80.8078 48° Northeast 164 189 6,000 -600 Descending Miami Center
Wed 10:22:25 AM 27.4333 -80.7692 47° Northeast 170 196 5,400 -650 Descending Miami Center
Wed 10:23:25 AM 27.4719 -80.7283 43° Northeast 175 201 4,700 -650 Descending Miami Center
Wed 10:24:25 AM 27.5044 -80.6897 46° Northeast 175 201 4,100 -550 Descending Miami Center
Wed 10:25:25 AM 27.5389 -80.6533 43° Northeast 170 196 3,600 -100 Descending Miami Center
Wed 10:26:25 AM 27.5503 -80.6161 71° East 142 163 3,900 250 Climbing Miami Center
Wed 10:27:25 AM 27.5533 -80.5789 85° East 131 151 4,100 100 Climbing Miami Center
Wed 10:28:25 AM 27.5461 -80.5317 100° East 126 145 4,100  Level Miami Center
Wed 10:29:25 AM 27.5431 -80.4894 95° East 126 145 4,100  Level Miami Center
Wed 10:30:25 AM 27.5336 -80.4469 104° East 126 145 4,100  Level Miami Center
Wed 10:31:25 AM 27.5303 -80.4094 96° East 126 145 4,100 -50 Level Miami Center
Wed 10:32:25 AM 27.5250 -80.3672 98° East 126 145 4,000 -450 Descending Miami Center
Wed 10:33:25 AM 27.5200 -80.3178 96° East 132 152 3,200 -450 Descending Miami Center
Wed 10:34:25 AM 27.5169 -80.2781 95° East 132 152 3,100 -100 Descending Miami Center
Wed 10:35:25 AM 27.5133 -80.2475 98° East 119 137 3,000 -250 Descending Miami Center
Wed 10:36:25 AM 27.5489 -80.2439 North 86 99 2,600 -450 Descending Miami Center
Wed 10:37:25 AM 27.5889 -80.2286 19° North 121 139 2,100 -250 Descending Miami Center
Wed 10:38:25 AM 27.6028 -80.2594 297° West 93 107 2,100 -50 Level Miami Center
Wed 10:39:25 AM 27.6125 -80.2947 287° West 110 127 2,000 -100 Descending Miami Center
Wed 10:40:25 AM 27.6242 -80.3258 293° West 127 146 1,900 -450 Descending Miami Center
Wed 10:41:25 AM 27.6358 -80.3611 290° West 127 146 1,100 -650 Descending Miami Center
Wed 10:42:25 AM 27.6497 -80.3922 297° West 115 132 600 -200 Descending Miami Center
Wed 10:43:25 AM 27.6767 -80.4047 338° Northwest 98 113 700  Climbing Miami Center
Wed 10:44:25 AM 27.6825 -80.4142 305° West 75 86 600 -100 Descending Miami Center

Login

Don't have an account? Register now (free) for customized features, flight alerts, and more!